Time;durP1;ratioP1;P1;durP2;ratioP2;P2;SDS_P1;SDS_P2;PMS_P1;PMS_P2;Temp;Humidity;BMP_temperature;BMP_pressure;BME280_temperature;BME280_humidity;BME280_pressure;Samples;Min_cycle;Max_cycle;Signal;HPM_P1;HPM_P2
2022/12/30 00:00:11;;;;;;;3.67;2.05;;;;;;;9.11;71.27;100321.78;4956218;29;20407;-71
2022/12/30 00:02:40;;;;;;;2.78;1.83;;;;;;;9.06;71.61;100314.31;4957927;28;20184;-71
2022/12/30 00:05:09;;;;;;;2.78;1.23;;;;;;;8.99;71.50;100328.84;4960100;28;20546;-72
2022/12/30 00:07:40;;;;;;;1.85;1.38;;;;;;;9.05;71.16;100333.41;4958241;28;20422;-72
2022/12/30 00:10:09;;;;;;;1.60;1.00;;;;;;;9.05;71.24;100339.63;4955825;29;20222;-72
2022/12/30 00:35:16;;;;;;;5.38;1.80;;;;;;;9.21;70.88;100367.25;4921726;29;20442;-71
2022/12/30 00:37:46;;;;;;;4.63;1.60;;;;;;;9.15;70.80;100368.91;4950571;29;20693;-71
2022/12/30 00:40:21;;;;;;;4.03;2.05;;;;;;;9.18;69.67;100360.41;4958737;28;20422;-71
2022/12/30 00:45:38;;;;;;;11.93;4.95;;;;;;;9.10;70.41;100372.22;4938939;28;20267;-70
2022/12/30 00:56:29;;;;;;;5.15;1.13;;;;;;;8.88;70.64;100386.09;4955396;29;20188;-71
2022/12/30 00:58:59;;;;;;;5.03;1.02;;;;;;;8.81;70.73;100380.66;4955471;29;20188;-72
2022/12/30 01:01:28;;;;;;;4.20;1.55;;;;;;;8.76;71.05;100393.97;4947519;29;20287;-72
2022/12/30 01:03:57;;;;;;;4.00;1.25;;;;;;;8.73;70.58;100383.56;4958664;28;20195;-72
2022/12/30 01:06:26;;;;;;;4.80;1.65;;;;;;;8.70;70.31;100389.38;4954989;29;20232;-71
2022/12/30 01:08:55;;;;;;;4.03;1.80;;;;;;;8.64;70.79;100392.88;4955197;28;20255;-72
2022/12/30 01:11:24;;;;;;;3.45;1.60;;;;;;;8.51;70.54;100395.53;4959116;28;20250;-71
2022/12/30 01:13:55;;;;;;;3.83;1.10;;;;;;;8.52;70.13;100398.00;4955602;28;20689;-71
2022/12/30 01:16:24;;;;;;;4.00;1.40;;;;;;;8.47;70.71;100415.84;4937938;29;20223;-71
2022/12/30 01:18:53;;;;;;;4.75;1.00;;;;;;;8.39;70.25;100419.50;4955015;28;20200;-71
2022/12/30 01:21:22;;;;;;;2.60;1.23;;;;;;;8.39;70.34;100429.47;4955052;29;20196;-71
2022/12/30 01:23:52;;;;;;;9.50;1.20;;;;;;;8.34;70.34;100427.34;4956949;28;20195;-71
2022/12/30 01:26:21;;;;;;;2.67;1.58;;;;;;;8.25;70.51;100429.34;4959055;28;20723;-72
2022/12/30 01:28:50;;;;;;;6.28;2.17;;;;;;;8.22;70.78;100432.47;4955122;28;20615;-71
2022/12/30 01:31:20;;;;;;;3.40;1.02;;;;;;;8.25;70.83;100434.75;4954646;29;20199;-70
2022/12/30 01:33:50;;;;;;;13.45;1.45;;;;;;;8.17;71.14;100437.63;4954706;28;20196;-71
2022/12/30 01:36:19;;;;;;;4.40;1.92;;;;;;;8.20;71.34;100430.97;4954689;28;20805;-71
2022/12/30 01:38:48;;;;;;;4.35;1.90;;;;;;;8.24;71.65;100437.63;4947938;29;20246;-70
2022/12/30 01:41:17;;;;;;;3.85;1.60;;;;;;;8.29;71.38;100448.66;4954283;29;20192;-70
2022/12/30 01:43:49;;;;;;;6.22;2.13;;;;;;;8.24;71.77;100448.41;4955700;28;20218;-73
2022/12/30 01:46:25;;;;;;;12.88;1.75;;;;;;;8.26;71.40;100468.78;4958898;29;20240;-73
2022/12/30 01:48:57;;;;;;;4.25;0.90;;;;;;;8.27;71.26;100467.75;4954387;29;20401;-71
2022/12/30 01:51:30;;;;;;;4.90;1.40;;;;;;;8.20;71.75;100474.94;4955882;29;20192;-72
2022/12/30 01:54:03;;;;;;;3.08;0.93;;;;;;;8.16;72.13;100473.66;4954057;29;20187;-70
2022/12/30 01:56:36;;;;;;;10.68;1.92;;;;;;;8.13;72.52;100481.31;4954242;29;20204;-71
2022/12/30 01:59:10;;;;;;;7.90;2.38;;;;;;;8.16;72.56;100489.00;4953985;29;20534;-71
2022/12/30 02:01:42;;;;;;;9.65;1.50;;;;;;;8.09;72.96;100494.34;4954556;28;20628;-71
2022/12/30 02:04:16;;;;;;;3.92;1.38;;;;;;;8.07;72.82;100495.56;4954263;28;20203;-71
2022/12/30 02:06:53;;;;;;;9.35;1.58;;;;;;;8.00;73.19;100505.47;4954347;29;20188;-71
2022/12/30 02:09:23;;;;;;;2.25;1.00;;;;;;;7.96;72.88;100505.03;4953653;29;20195;-72
2022/12/30 02:11:52;;;;;;;5.65;1.98;;;;;;;8.01;72.42;100502.56;4954281;29;20220;-71
2022/12/30 02:14:22;;;;;;;3.95;1.65;;;;;;;8.02;72.25;100515.03;4941447;28;20623;-71
2022/12/30 02:17:00;;;;;;;3.72;1.10;;;;;;;8.14;71.93;100516.16;4954287;29;20595;-70
2022/12/30 02:20:10;;;;;;;4.18;1.67;;;;;;;8.20;71.77;100512.69;4953903;28;20188;-70
2022/12/30 02:22:58;;;;;;;4.70;1.63;;;;;;;8.26;71.49;100514.59;4958120;29;20188;-71
2022/12/30 02:26:09;;;;;;;4.15;1.90;;;;;;;8.38;70.85;100522.16;4957681;28;20212;-71
2022/12/30 02:29:18;;;;;;;4.45;1.23;;;;;;;8.39;70.70;100526.53;4941961;29;20203;-70
2022/12/30 02:31:54;;;;;;;5.18;1.50;;;;;;;8.38;70.42;100524.84;4957850;29;20625;-70
2022/12/30 02:34:32;;;;;;;4.82;1.20;;;;;;;8.36;70.26;100526.94;4957672;28;20224;-71
2022/12/30 02:37:09;;;;;;;9.95;1.70;;;;;;;8.31;70.68;100529.38;4957624;28;20215;-71
2022/12/30 02:39:44;;;;;;;4.85;1.05;;;;;;;8.33;70.64;100533.53;4940477;29;20204;-70
2022/12/30 02:45:16;;;;;;;2.42;2.03;;;;;;;8.04;71.47;100529.13;4953809;28;20224;-71
2022/12/30 02:47:52;;;;;;;2.20;1.10;;;;;;;7.89;72.18;100528.38;4957891;29;20198;-71
2022/12/30 02:53:17;;;;;;;2.55;1.33;;;;;;;8.01;71.83;100531.38;4955832;29;20211;-71
2022/12/30 02:55:45;;;;;;;10.82;1.42;;;;;;;8.11;71.31;100531.88;4957723;28;20216;-70
2022/12/30 02:58:15;;;;;;;8.70;2.60;;;;;;;8.07;71.25;100528.75;4957736;29;20227;-72
2022/12/30 03:04:01;;;;;;;12.55;2.08;;;;;;;8.02;71.29;100530.34;4957395;29;20278;-71
2022/12/30 03:06:59;;;;;;;7.90;1.60;;;;;;;7.91;71.42;100526.31;4957203;29;20188;-71
2022/12/30 03:11:12;;;;;;;3.03;0.98;;;;;;;7.77;71.88;100528.06;4947619;29;20208;-72
2022/12/30 03:12:44;;;;;;;4.07;1.63;;;;;;;7.68;72.22;100539.16;4955570;29;20204;-72
2022/12/30 03:15:19;;;;;;;5.53;1.52;;;;;;;7.56;72.80;100540.69;4957451;28;20222;-72
2022/12/30 03:17:50;;;;;;;5.40;1.50;;;;;;;7.50;73.18;100546.84;4957396;28;20195;-72
2022/12/30 03:20:25;;;;;;;3.80;1.75;;;;;;;7.50;73.17;100552.22;4962919;28;20214;-72
2022/12/30 03:28:33;;;;;;;5.22;1.30;;;;;;;7.62;72.96;100562.31;4956943;29;20227;-71
2022/12/30 03:31:04;;;;;;;6.38;2.50;;;;;;;7.73;72.50;100561.81;4956996;28;20215;-72
2022/12/30 03:33:33;;;;;;;9.77;1.50;;;;;;;7.86;72.19;100564.63;4955181;29;20673;-72
2022/12/30 03:36:12;;;;;;;2.72;1.17;;;;;;;7.82;72.33;100565.19;4956592;29;20210;-71
2022/12/30 03:38:46;;;;;;;2.33;1.55;;;;;;;7.76;72.38;100569.50;4956515;29;20282;-71
2022/12/30 03:41:17;;;;;;;7.40;2.05;;;;;;;7.75;72.13;100561.59;4956476;29;20194;-72
2022/12/30 03:43:46;;;;;;;22.95;6.00;;;;;;;7.70;72.47;100575.63;4956385;29;20204;-71
2022/12/30 03:46:15;;;;;;;8.60;1.63;;;;;;;7.78;72.34;100583.63;4961783;28;20223;-72
2022/12/30 03:48:44;;;;;;;8.80;1.50;;;;;;;7.73;72.68;100572.56;4958111;29;20223;-72
2022/12/30 03:51:15;;;;;;;4.85;1.80;;;;;;;7.66;72.58;100582.44;4956834;29;20208;-72
2022/12/30 03:53:44;;;;;;;2.45;1.40;;;;;;;7.60;73.04;100579.69;4962932;28;20431;-72
2022/12/30 03:56:13;;;;;;;10.85;4.57;;;;;;;7.56;73.12;100589.97;4956798;28;20227;-71
2022/12/30 03:58:41;;;;;;;3.85;1.42;;;;;;;7.55;73.06;100584.81;4956546;28;20198;-72
2022/12/30 04:01:11;;;;;;;12.55;2.03;;;;;;;7.53;73.25;100585.00;4956610;29;20188;-71
2022/12/30 04:03:40;;;;;;;4.20;1.80;;;;;;;7.63;72.76;100592.75;4956286;29;20216;-72
2022/12/30 04:06:09;;;;;;;2.95;1.38;;;;;;;7.69;72.61;100590.16;4956519;28;20668;-72
2022/12/30 04:08:40;;;;;;;8.02;1.48;;;;;;;7.80;72.22;100599.56;4959656;28;20203;-71
2022/12/30 04:11:09;;;;;;;7.13;1.83;;;;;;;7.81;72.03;100599.38;4956234;28;20220;-72
2022/12/30 04:13:40;;;;;;;11.15;2.55;;;;;;;7.81;71.87;100598.53;4950735;28;20650;-72
2022/12/30 04:16:10;;;;;;;3.63;1.52;;;;;;;7.68;72.21;100598.41;4958199;29;20212;-71
2022/12/30 04:18:39;;;;;;;3.15;1.10;;;;;;;7.54;72.90;100602.81;4958908;28;20196;-71
2022/12/30 04:21:08;;;;;;;6.85;1.42;;;;;;;7.51;72.82;100603.19;4941110;29;20211;-72
2022/12/30 04:23:39;;;;;;;12.48;1.88;;;;;;;7.43;73.33;100600.59;4961541;28;20243;-72
2022/12/30 04:26:08;;;;;;;10.65;2.55;;;;;;;7.33;73.83;100602.75;4939230;29;20597;-73
2022/12/30 04:28:37;;;;;;;6.45;1.90;;;;;;;7.28;74.22;100608.69;4957644;29;20196;-72
2022/12/30 04:31:07;;;;;;;4.30;1.55;;;;;;;7.21;74.41;100615.03;4946113;29;20258;-72
2022/12/30 04:33:36;;;;;;;4.05;1.38;;;;;;;7.16;74.93;100620.97;4956224;28;20668;-72
2022/12/30 04:36:05;;;;;;;2.15;1.30;;;;;;;7.05;75.01;100615.22;4955613;28;20224;-72
2022/12/30 04:38:34;;;;;;;8.68;1.55;;;;;;;6.97;75.66;100613.47;4955833;29;20200;-71
2022/12/30 04:41:05;;;;;;;8.52;3.40;;;;;;;6.99;75.07;100612.25;4961026;28;20222;-72
2022/12/30 04:43:34;;;;;;;8.50;1.70;;;;;;;6.83;75.61;100619.66;4954974;28;20200;-72
2022/12/30 04:46:03;;;;;;;4.35;1.65;;;;;;;6.80;76.00;100620.03;4961627;28;20216;-73
2022/12/30 04:48:32;;;;;;;2.50;1.35;;;;;;;6.72;75.83;100614.75;4957116;28;20203;-72
2022/12/30 04:51:01;;;;;;;8.38;2.33;;;;;;;6.85;75.41;100636.47;4945907;29;20578;-72
2022/12/30 04:53:30;;;;;;;6.45;1.58;;;;;;;6.87;75.09;100637.94;4955384;29;20711;-72
2022/12/30 04:55:59;;;;;;;2.78;1.25;;;;;;;6.91;74.65;100643.78;4955008;28;20223;-72
2022/12/30 04:58:30;;;;;;;3.47;1.52;;;;;;;6.96;74.33;100638.69;4955272;28;20208;-72
2022/12/30 05:01:01;;;;;;;4.10;2.17;;;;;;;6.95;74.26;100645.94;4955388;29;20192;-73
2022/12/30 05:03:30;;;;;;;7.63;1.73;;;;;;;6.91;74.39;100651.88;4955224;29;20223;-72
2022/12/30 05:06:00;;;;;;;3.65;1.80;;;;;;;6.96;74.20;100662.91;4955552;28;20704;-71
2022/12/30 05:08:29;;;;;;;2.33;1.45;;;;;;;6.90;74.95;100658.25;4954994;29;20188;-72
2022/12/30 05:10:58;;;;;;;8.35;1.83;;;;;;;6.87;74.85;100658.63;4971885;28;20213;-71
2022/12/30 05:13:27;;;;;;;9.05;1.80;;;;;;;6.87;74.15;100655.94;4955569;28;20638;-72
2022/12/30 05:15:57;;;;;;;6.65;2.28;;;;;;;6.80;74.76;100663.91;4955044;28;20222;-71
2022/12/30 05:18:26;;;;;;;5.05;1.67;;;;;;;6.72;74.75;100663.16;4954902;29;20195;-72
2022/12/30 05:20:55;;;;;;;3.47;1.52;;;;;;;6.79;74.64;100666.78;4955305;28;20615;-71
2022/12/30 05:26:15;;;;;;;5.85;1.45;;;;;;;6.77;74.79;100677.72;4958218;28;20743;-72
2022/12/30 05:28:45;;;;;;;2.40;1.10;;;;;;;6.63;75.27;100675.00;4954937;29;20554;-72
2022/12/30 05:31:17;;;;;;;3.13;1.40;;;;;;;6.64;75.36;100687.41;4939268;29;20308;-72
2022/12/30 05:33:46;;;;;;;6.35;2.28;;;;;;;6.61;75.42;100682.41;4962294;28;20215;-72
2022/12/30 05:36:16;;;;;;;1.58;1.20;;;;;;;6.55;76.35;100692.88;4957709;28;20223;-72
2022/12/30 05:38:45;;;;;;;15.45;2.22;;;;;;;6.65;75.93;100691.78;4955069;28;20196;-72
2022/12/30 05:41:14;;;;;;;5.00;2.00;;;;;;;6.63;75.88;100691.16;4954672;28;20567;-71
2022/12/30 05:43:48;;;;;;;11.80;1.67;;;;;;;6.57;76.26;100689.16;4954738;28;20204;-72
2022/12/30 05:46:19;;;;;;;10.40;1.75;;;;;;;6.45;76.67;100694.97;4955092;28;20224;-73
2022/12/30 05:48:49;;;;;;;6.18;1.30;;;;;;;6.39;76.70;100700.25;4955017;29;20192;-72
2022/12/30 05:51:18;;;;;;;6.60;1.63;;;;;;;6.51;76.60;100706.84;4954507;29;20219;-72
2022/12/30 05:53:46;;;;;;;12.55;1.98;;;;;;;6.36;77.03;100706.81;4939998;29;20195;-71
2022/12/30 05:56:15;;;;;;;6.22;1.75;;;;;;;6.36;77.23;100714.88;4954085;28;20555;-72
2022/12/30 05:58:44;;;;;;;8.18;2.15;;;;;;;6.29;77.67;100719.31;4941960;29;20683;-73
2022/12/30 06:01:13;;;;;;;3.40;2.00;;;;;;;6.23;78.28;100727.22;4954419;29;20203;-71
2022/12/30 06:03:44;;;;;;;2.80;1.27;;;;;;;6.16;78.37;100731.63;4954566;29;20202;-73
2022/12/30 06:06:13;;;;;;;8.10;1.75;;;;;;;6.04;79.38;100740.09;4955708;28;20215;-72
2022/12/30 06:08:42;;;;;;;4.95;1.35;;;;;;;6.00;79.66;100743.31;4958007;28;20194;-74
2022/12/30 06:11:11;;;;;;;4.90;1.58;;;;;;;5.98;79.98;100742.66;4943456;29;20210;-72
2022/12/30 06:13:40;;;;;;;9.02;2.50;;;;;;;5.95;80.27;100751.06;4959777;29;20223;-71
2022/12/30 06:16:09;;;;;;;6.50;1.75;;;;;;;5.93;80.45;100758.44;4959053;29;20271;-73
2022/12/30 06:18:38;;;;;;;6.13;1.90;;;;;;;5.85;80.95;100753.09;4958907;29;20204;-73
2022/12/30 06:21:08;;;;;;;5.25;1.20;;;;;;;5.68;81.65;100758.53;4965772;28;20188;-72
2022/12/30 06:23:37;;;;;;;5.55;1.50;;;;;;;5.64;81.98;100761.72;4942387;29;20233;-71
2022/12/30 06:26:06;;;;;;;4.03;1.65;;;;;;;5.65;82.47;100764.25;4959255;29;20625;-72
2022/12/30 06:28:35;;;;;;;3.35;1.55;;;;;;;5.66;82.03;100775.84;4960099;29;20613;-72
2022/12/30 06:31:05;;;;;;;3.75;2.60;;;;;;;5.64;82.73;100777.84;4942289;29;20200;-71
2022/12/30 06:33:34;;;;;;;10.18;1.55;;;;;;;5.60;82.83;100781.88;4957212;28;20294;-72
2022/12/30 06:36:03;;;;;;;2.85;1.75;;;;;;;5.62;82.50;100779.84;4973229;28;20211;-73
2022/12/30 06:38:33;;;;;;;3.10;1.10;;;;;;;5.45;83.36;100773.72;4971359;28;20199;-72
2022/12/30 06:41:02;;;;;;;6.93;1.83;;;;;;;5.44;83.77;100780.09;4944900;29;20279;-72
2022/12/30 06:43:31;;;;;;;3.65;1.40;;;;;;;5.41;83.75;100780.44;4959223;29;20211;-73
2022/12/30 06:46:00;;;;;;;5.05;2.17;;;;;;;5.43;84.21;100777.56;4957360;28;20243;-72
2022/12/30 06:48:29;;;;;;;5.10;1.65;;;;;;;5.31;84.19;100784.31;4951489;28;20610;-72
2022/12/30 06:51:04;;;;;;;2.47;2.28;;;;;;;5.32;84.84;100789.50;4957112;29;20184;-71
2022/12/30 06:53:35;;;;;;;10.65;2.45;;;;;;;5.30;84.59;100799.56;4956582;29;20621;-72
2022/12/30 06:56:04;;;;;;;6.57;2.13;;;;;;;5.20;85.70;100802.44;4957374;29;20640;-73
2022/12/30 06:58:33;;;;;;;4.40;1.33;;;;;;;5.27;85.07;100802.59;4942764;29;20208;-72
2022/12/30 07:01:02;;;;;;;1.50;1.23;;;;;;;5.14;85.95;100808.47;4958595;28;20196;-72
2022/12/30 07:03:31;;;;;;;7.55;1.77;;;;;;;5.08;85.85;100803.78;4957301;29;20231;-72
2022/12/30 07:06:00;;;;;;;3.45;1.30;;;;;;;5.14;85.34;100810.31;4957830;28;20220;-72
2022/12/30 07:08:29;;;;;;;4.75;1.80;;;;;;;5.05;85.99;100811.31;4961315;29;20199;-72
2022/12/30 07:11:00;;;;;;;8.00;1.85;;;;;;;4.95;86.18;100816.00;4961233;28;20188;-72
2022/12/30 07:13:29;;;;;;;5.10;2.05;;;;;;;5.05;86.04;100814.00;4951536;29;20215;-72
2022/12/30 07:15:58;;;;;;;9.52;1.60;;;;;;;5.12;85.69;100825.75;4956939;28;20219;-72
2022/12/30 07:18:27;;;;;;;10.15;2.22;;;;;;;5.11;86.18;100829.44;4961848;28;20246;-72
2022/12/30 07:20:56;;;;;;;10.70;2.25;;;;;;;5.09;86.02;100842.16;4958048;28;20191;-72
2022/12/30 07:23:25;;;;;;;3.63;1.52;;;;;;;5.09;86.28;100837.63;4961575;28;20275;-72
2022/12/30 07:25:54;;;;;;;5.60;2.05;;;;;;;5.08;85.80;100840.50;4957013;28;20223;-71
2022/12/30 07:28:24;;;;;;;8.93;3.03;;;;;;;5.17;86.11;100845.69;4957020;29;20207;-72
2022/12/30 07:30:53;;;;;;;8.02;1.45;;;;;;;5.08;86.33;100845.88;4957013;29;20195;-73
2022/12/30 07:33:22;;;;;;;16.52;2.75;;;;;;;4.99;86.56;100857.59;4957209;29;20714;-72
2022/12/30 07:35:51;;;;;;;6.05;2.03;;;;;;;4.99;86.79;100857.59;4956804;28;20723;-71
2022/12/30 07:38:20;;;;;;;28.73;2.90;;;;;;;4.97;86.83;100859.59;4956759;29;20200;-72
2022/12/30 07:40:49;;;;;;;3.30;1.95;;;;;;;5.07;86.25;100854.91;4956746;29;20263;-73
2022/12/30 07:43:18;;;;;;;3.15;1.48;;;;;;;5.03;86.56;100856.25;4956461;29;20259;-72
2022/12/30 07:45:48;;;;;;;5.97;2.13;;;;;;;5.09;86.28;100853.72;4956777;28;20224;-72
2022/12/30 07:48:17;;;;;;;3.75;1.65;;;;;;;5.09;86.82;100864.47;4956833;29;20196;-72
2022/12/30 07:50:46;;;;;;;3.47;1.90;;;;;;;5.08;85.92;100870.03;4956728;28;20200;-71
2022/12/30 07:53:15;;;;;;;26.33;2.75;;;;;;;5.03;86.35;100880.41;4956570;28;20222;-72
2022/12/30 07:55:44;;;;;;;3.45;2.08;;;;;;;5.09;86.31;100874.34;4956464;28;20303;-72
2022/12/30 07:58:13;;;;;;;5.50;2.53;;;;;;;5.22;85.37;100877.38;4956506;28;20216;-71
2022/12/30 08:00:42;;;;;;;8.52;2.00;;;;;;;5.15;85.92;100874.53;4956478;28;20588;-73
2022/12/30 08:03:13;;;;;;;5.03;2.25;;;;;;;5.26;85.15;100886.78;4956535;29;20713;-71
2022/12/30 08:05:42;;;;;;;5.05;2.42;;;;;;;5.38;84.62;100877.38;4956440;29;20216;-72
2022/12/30 08:08:11;;;;;;;9.88;2.35;;;;;;;5.38;84.27;100882.72;4957735;28;20196;-73
2022/12/30 08:10:40;;;;;;;4.90;2.22;;;;;;;5.51;84.19;100891.13;4941993;29;20199;-72
2022/12/30 08:13:08;;;;;;;3.30;1.58;;;;;;;5.63;83.40;100895.13;4956182;28;20219;-72
2022/12/30 08:15:39;;;;;;;4.80;2.90;;;;;;;5.67;83.16;100901.81;4956284;28;20247;-71
2022/12/30 08:18:08;;;;;;;4.07;1.55;;;;;;;5.69;82.77;100898.97;4955364;28;20196;-72
2022/12/30 08:20:39;;;;;;;3.78;1.40;;;;;;;5.77;83.26;100903.47;4956126;29;20236;-72
2022/12/30 08:23:08;;;;;;;9.48;1.67;;;;;;;5.94;82.63;100900.66;4956208;29;20195;-72
2022/12/30 08:25:37;;;;;;;8.30;2.30;;;;;;;5.93;81.89;100900.81;4959756;28;20800;-72
2022/12/30 08:28:06;;;;;;;5.00;2.45;;;;;;;5.85;81.97;100887.38;4955796;29;20197;-72
2022/12/30 08:30:35;;;;;;;14.48;2.53;;;;;;;5.93;82.02;100900.81;4956113;29;20190;-73
2022/12/30 08:33:04;;;;;;;4.70;2.58;;;;;;;5.89;81.71;100903.00;4956206;29;20636;-72
2022/12/30 08:35:33;;;;;;;4.20;2.03;;;;;;;5.96;81.68;100903.13;4957528;29;20697;-71
2022/12/30 08:38:03;;;;;;;12.55;2.10;;;;;;;5.98;81.26;100898.44;4962082;28;20211;-71
2022/12/30 08:40:33;;;;;;;3.92;1.67;;;;;;;5.92;81.86;100909.88;4956837;28;20196;-71
2022/12/30 08:43:02;;;;;;;5.10;2.55;;;;;;;6.07;81.28;100908.16;4958197;29;20570;-71
2022/12/30 08:45:31;;;;;;;2.00;1.35;;;;;;;6.11;80.66;100896.03;4956033;28;20282;-72
2022/12/30 08:48:00;;;;;;;10.80;3.03;;;;;;;6.02;81.10;100899.78;4958546;28;20200;-71
2022/12/30 08:50:29;;;;;;;6.68;1.92;;;;;;;6.05;81.83;100900.25;4958049;28;20561;-73
2022/12/30 08:52:58;;;;;;;3.42;2.00;;;;;;;6.18;80.91;100910.47;4957745;28;20761;-70
2022/12/30 08:55:28;;;;;;;11.70;2.08;;;;;;;6.23;80.31;100916.16;4957008;28;20208;-72
2022/12/30 08:57:57;;;;;;;4.70;2.05;;;;;;;6.23;79.69;100923.38;4962241;28;20202;-71
2022/12/30 09:00:26;;;;;;;11.90;2.58;;;;;;;6.29;79.74;100926.22;4957587;28;20216;-73
2022/12/30 09:02:56;;;;;;;3.60;1.90;;;;;;;6.40;79.33;100925.81;4956777;28;20270;-70
2022/12/30 09:05:25;;;;;;;3.45;2.45;;;;;;;6.51;78.49;100917.38;4958667;28;20681;-71
2022/12/30 09:07:54;;;;;;;18.85;4.05;;;;;;;6.57;78.18;100915.00;4956235;29;20192;-71
2022/12/30 09:10:28;;;;;;;3.67;1.67;;;;;;;6.46;78.27;100911.69;4955860;29;20219;-72
2022/12/30 09:12:57;;;;;;;5.32;1.90;;;;;;;6.47;78.35;100913.38;4939524;29;20199;-71
2022/12/30 09:15:26;;;;;;;3.97;1.58;;;;;;;6.57;78.46;100920.38;4960248;28;20247;-72
2022/12/30 09:17:55;;;;;;;9.52;2.67;;;;;;;6.71;77.65;100920.47;4961047;28;20643;-73
2022/12/30 09:20:24;;;;;;;2.97;1.55;;;;;;;6.82;76.90;100921.94;4956531;29;20191;-72
2022/12/30 09:22:53;;;;;;;6.03;2.22;;;;;;;6.88;76.52;100923.91;4956482;29;20188;-72
2022/12/30 09:25:22;;;;;;;8.63;2.00;;;;;;;6.96;76.05;100931.94;4941515;29;20590;-73
2022/12/30 09:27:53;;;;;;;17.70;2.75;;;;;;;6.97;76.26;100936.31;4963271;29;20203;-73
2022/12/30 09:30:22;;;;;;;6.82;2.60;;;;;;;6.97;75.60;100933.63;4955970;28;20223;-72
2022/12/30 09:32:51;;;;;;;5.35;1.55;;;;;;;7.03;75.59;100929.34;4950648;28;20307;-72
2022/12/30 09:35:20;;;;;;;10.02;2.20;;;;;;;7.17;75.49;100925.91;4960575;28;20315;-72
2022/12/30 09:37:49;;;;;;;9.10;1.55;;;;;;;7.28;74.68;100923.63;4956379;28;20647;-72
2022/12/30 09:40:25;;;;;;;3.83;1.48;;;;;;;7.24;74.78;100922.31;4955286;28;20222;-72
2022/12/30 09:43:17;;;;;;;8.27;2.30;;;;;;;7.33;74.33;100929.31;4958057;28;20192;-72
2022/12/30 09:46:10;;;;;;;6.05;2.50;;;;;;;7.54;73.54;100911.66;5132549;23;20291;-71
2022/12/30 09:48:44;;;;;;;9.32;2.17;;;;;;;7.64;73.48;100920.31;4966538;28;20222;-70
2022/12/30 09:51:17;;;;;;;4.80;2.05;;;;;;;7.72;72.77;100917.53;4964882;28;20286;-71
2022/12/30 09:53:52;;;;;;;9.05;2.67;;;;;;;7.83;72.45;100919.78;4959283;29;20280;-70
2022/12/30 09:56:28;;;;;;;4.07;1.92;;;;;;;7.96;72.10;100913.75;4958416;28;20696;-71
2022/12/30 09:59:04;;;;;;;6.93;1.58;;;;;;;7.96;71.38;100906.50;4958142;29;20210;-70
2022/12/30 10:01:37;;;;;;;6.18;1.60;;;;;;;8.00;71.32;100913.19;4959315;28;20198;-70
2022/12/30 10:04:15;;;;;;;16.50;1.73;;;;;;;8.05;71.21;100916.16;4958260;29;20273;-70
2022/12/30 10:06:54;;;;;;;8.35;2.15;;;;;;;8.24;71.31;100907.53;4946463;29;20213;-72
2022/12/30 10:09:40;;;;;;;12.00;2.50;;;;;;;8.38;69.34;100913.97;4959722;29;20196;-70
2022/12/30 10:12:37;;;;;;;6.40;2.00;;;;;;;8.24;69.34;100914.78;4959743;29;20315;-72
2022/12/30 10:15:44;;;;;;;8.43;4.20;;;;;;;8.43;69.20;100908.84;4967941;28;20224;-72
2022/12/30 10:18:48;;;;;;;6.45;1.80;;;;;;;8.49;68.80;100901.88;4926198;28;20294;-70
2022/12/30 10:21:30;;;;;;;6.10;3.17;;;;;;;8.51;68.62;100902.53;4948855;28;20215;-71
2022/12/30 10:24:16;;;;;;;2.83;1.55;;;;;;;8.59;68.68;100899.72;4955397;29;20192;-72
2022/12/30 10:26:49;;;;;;;4.53;2.03;;;;;;;8.72;67.61;100905.25;4955205;29;20644;-70
2022/12/30 10:29:20;;;;;;;7.78;2.15;;;;;;;8.81;67.64;100898.72;4964797;28;20660;-71
2022/12/30 10:31:53;;;;;;;5.25;1.98;;;;;;;8.86;67.59;100896.28;4955360;29;20206;-71
2022/12/30 10:34:29;;;;;;;3.00;1.65;;;;;;;8.91;66.64;100882.22;4955051;29;20208;-70
2022/12/30 10:37:02;;;;;;;4.40;1.73;;;;;;;9.03;65.97;100880.69;4954958;28;20255;-71
2022/12/30 10:39:33;;;;;;;3.72;1.73;;;;;;;9.03;66.13;100876.13;4955198;29;20438;-71
2022/12/30 10:42:29;;;;;;;5.40;2.40;;;;;;;9.13;66.17;100878.50;4956639;28;20200;-71
2022/12/30 10:45:13;;;;;;;15.40;2.47;;;;;;;9.11;65.91;100875.16;4959121;29;20605;-71
2022/12/30 10:47:54;;;;;;;3.25;1.80;;;;;;;9.18;65.00;100872.53;4961805;29;20468;-71
2022/12/30 10:50:35;;;;;;;6.95;1.92;;;;;;;9.13;65.46;100876.66;4965313;28;20191;-72
2022/12/30 10:53:10;;;;;;;7.75;1.30;;;;;;;9.10;65.37;100876.22;4966020;28;20747;-70
2022/12/30 10:55:46;;;;;;;11.37;1.90;;;;;;;9.18;64.82;100867.13;4943178;29;20302;-72
2022/12/30 10:58:23;;;;;;;2.47;1.48;;;;;;;9.19;64.64;100866.94;4980873;28;20927;-70
2022/12/30 11:00:53;;;;;;;14.35;1.95;;;;;;;9.32;65.02;100863.50;4963578;28;20195;-70
2022/12/30 11:03:36;;;;;;;7.13;2.33;;;;;;;9.27;64.09;100860.56;4942789;29;20226;-71
2022/12/30 11:06:20;;;;;;;3.90;1.83;;;;;;;9.32;64.03;100850.00;4961862;28;20262;-71
2022/12/30 11:08:50;;;;;;;8.68;2.00;;;;;;;9.34;63.91;100856.06;4947828;29;20227;-72
2022/12/30 11:14:41;;;;;;;7.23;1.80;;;;;;;9.39;63.55;100850.91;4959992;29;20200;-72
2022/12/30 11:14:43;;;;;;;3.30;1.08;;;;;;;9.54;63.08;100846.22;4960044;29;20467;-71
2022/12/30 11:17:23;;;;;;;6.30;1.83;;;;;;;9.64;62.88;100841.31;4959077;29;20263;-71
2022/12/30 11:19:55;;;;;;;13.13;1.70;;;;;;;9.72;62.42;100832.25;4958911;29;20436;-72
2022/12/30 11:22:25;;;;;;;14.03;2.60;;;;;;;9.83;62.19;100846.03;4960272;29;20417;-71
2022/12/30 11:25:05;;;;;;;7.27;2.23;;;;;;;9.78;61.67;100848.47;4960133;29;20911;-70
2022/12/30 11:27:42;;;;;;;13.83;2.70;;;;;;;9.73;61.90;100840.13;4959586;29;20501;-71
2022/12/30 11:30:25;;;;;;;6.47;1.40;;;;;;;9.84;61.83;100839.59;4951780;29;20438;-70
2022/12/30 11:32:57;;;;;;;3.90;1.97;;;;;;;9.70;62.33;100840.53;4962324;29;20424;-71
2022/12/30 11:35:35;;;;;;;3.43;1.77;;;;;;;9.80;62.91;100830.22;4959864;28;20521;-71
2022/12/30 11:38:25;;;;;;;5.93;1.60;;;;;;;9.84;62.73;100830.63;4968068;28;20437;-71
2022/12/30 11:40:55;;;;;;;4.90;1.40;;;;;;;9.68;62.90;100839.09;4970852;28;20407;-71
2022/12/30 11:43:24;;;;;;;7.53;3.40;;;;;;;9.49;63.39;100835.19;4957931;29;20943;-70
2022/12/30 11:46:01;;;;;;;8.03;2.73;;;;;;;9.50;63.54;100836.84;4941168;29;20518;-71
2022/12/30 11:48:33;;;;;;;3.03;1.13;;;;;;;9.54;63.53;100830.03;4958182;29;20399;-71
2022/12/30 11:51:14;;;;;;;11.30;1.90;;;;;;;9.66;63.59;100827.63;4960832;28;20432;-71
2022/12/30 11:53:43;;;;;;;3.50;1.70;;;;;;;9.54;63.50;100821.91;4939987;29;20448;-71
2022/12/30 11:56:13;;;;;;;4.37;3.17;;;;;;;9.81;63.65;100812.97;4964284;28;20457;-72
2022/12/30 11:58:42;;;;;;;6.73;1.30;;;;;;;9.70;62.97;100818.09;4962576;28;20435;-71
2022/12/30 12:01:12;;;;;;;6.63;1.47;;;;;;;9.58;63.36;100828.63;4957801;29;20450;-72
2022/12/30 12:03:51;;;;;;;7.10;2.80;;;;;;;9.60;63.26;100811.16;4957811;29;20452;-72
2022/12/30 12:06:21;;;;;;;6.70;2.07;;;;;;;9.64;63.53;100808.91;4957696;28;20782;-70
2022/12/30 12:09:00;;;;;;;14.13;2.07;;;;;;;9.84;63.42;100809.03;4957256;29;20446;-71
2022/12/30 12:11:33;;;;;;;6.43;2.00;;;;;;;9.78;62.87;100807.94;4957147;28;20982;-71
2022/12/30 12:14:12;;;;;;;6.73;2.53;;;;;;;9.64;63.21;100798.09;4957254;29;20431;-71
2022/12/30 12:16:49;;;;;;;5.17;2.30;;;;;;;9.84;63.11;100793.63;4952706;29;20479;-71
2022/12/30 12:19:26;;;;;;;3.20;1.83;;;;;;;9.78;63.03;100794.44;4958790;29;20519;-71
2022/12/30 12:22:01;;;;;;;7.15;1.65;;;;;;;9.57;63.19;100784.56;4958781;29;20447;-70
2022/12/30 12:24:34;;;;;;;3.73;1.63;;;;;;;9.44;63.97;100787.16;4957344;28;20207;-71
2022/12/30 12:27:09;;;;;;;2.70;1.33;;;;;;;9.47;64.45;100777.84;4957401;29;20410;-71
2022/12/30 12:29:39;;;;;;;5.50;1.77;;;;;;;9.45;64.89;100782.59;4957188;29;20424;-71
2022/12/30 12:32:42;;;;;;;7.77;2.23;;;;;;;9.44;64.04;100781.75;4969221;28;20454;-70
2022/12/30 12:35:26;;;;;;;9.03;2.70;;;;;;;9.54;64.18;100779.53;4960803;28;20918;-72
2022/12/30 12:38:06;;;;;;;3.17;1.80;;;;;;;9.51;64.19;100781.81;4969918;28;20429;-72
2022/12/30 12:40:54;;;;;;;5.60;1.20;;;;;;;9.46;64.24;100778.84;4957285;29;20916;-71
2022/12/30 12:43:27;;;;;;;8.17;1.87;;;;;;;9.61;63.82;100776.88;4958781;28;20187;-70
2022/12/30 12:46:23;;;;;;;5.20;2.13;;;;;;;9.59;64.00;100773.53;4957418;29;20502;-72
2022/12/30 12:49:22;;;;;;;7.80;2.73;;;;;;;9.59;63.92;100774.38;4966471;28;20528;-70